sensor_id;sensor_type;location;lat;lon;timestamp;P1;durP1;ratioP1;P2;durP2;ratioP2
45694;SDS011;31408;45.468;9.124;2024-01-11T00:01:09;12.43;;;6.63;;
45694;SDS011;31408;45.468;9.124;2024-01-11T00:03:35;16.35;;;7.05;;
45694;SDS011;31408;45.468;9.124;2024-01-11T00:06:00;15.32;;;6.82;;
45694;SDS011;31408;45.468;9.124;2024-01-11T00:08:26;14.45;;;6.30;;
45694;SDS011;31408;45.468;9.124;2024-01-11T00:10:56;19.13;;;6.82;;
45694;SDS011;31408;45.468;9.124;2024-01-11T00:13:21;21.40;;;7.00;;
45694;SDS011;31408;45.468;9.124;2024-01-11T00:15:47;16.42;;;7.90;;
45694;SDS011;31408;45.468;9.124;2024-01-11T00:18:12;13.98;;;6.00;;
45694;SDS011;31408;45.468;9.124;2024-01-11T00:20:37;16.77;;;6.95;;
45694;SDS011;31408;45.468;9.124;2024-01-11T00:23:03;12.90;;;6.07;;
45694;SDS011;31408;45.468;9.124;2024-01-11T00:25:28;15.02;;;6.43;;
45694;SDS011;31408;45.468;9.124;2024-01-11T00:27:53;18.45;;;7.70;;
45694;SDS011;31408;45.468;9.124;2024-01-11T00:30:19;16.15;;;7.10;;
45694;SDS011;31408;45.468;9.124;2024-01-11T00:32:44;14.18;;;6.72;;
45694;SDS011;31408;45.468;9.124;2024-01-11T00:35:09;11.90;;;6.53;;
45694;SDS011;31408;45.468;9.124;2024-01-11T00:37:35;13.20;;;6.13;;
45694;SDS011;31408;45.468;9.124;2024-01-11T00:40:00;17.92;;;6.55;;
45694;SDS011;31408;45.468;9.124;2024-01-11T00:42:26;16.20;;;6.88;;
45694;SDS011;31408;45.468;9.124;2024-01-11T00:44:51;18.77;;;7.60;;
45694;SDS011;31408;45.468;9.124;2024-01-11T00:47:16;12.50;;;5.68;;
45694;SDS011;31408;45.468;9.124;2024-01-11T00:49:42;17.45;;;7.50;;
45694;SDS011;31408;45.468;9.124;2024-01-11T00:52:08;18.75;;;8.15;;
45694;SDS011;31408;45.468;9.124;2024-01-11T00:54:35;16.25;;;7.00;;
45694;SDS011;31408;45.468;9.124;2024-01-11T00:57:00;15.40;;;7.35;;
45694;SDS011;31408;45.468;9.124;2024-01-11T00:59:26;12.68;;;5.50;;
45694;SDS011;31408;45.468;9.124;2024-01-11T01:01:51;17.23;;;8.88;;
45694;SDS011;31408;45.468;9.124;2024-01-11T01:04:16;14.50;;;6.43;;
45694;SDS011;31408;45.468;9.124;2024-01-11T01:06:42;14.18;;;7.15;;
45694;SDS011;31408;45.468;9.124;2024-01-11T01:09:07;19.48;;;8.73;;
45694;SDS011;31408;45.468;9.124;2024-01-11T01:11:33;11.48;;;6.32;;
45694;SDS011;31408;45.468;9.124;2024-01-11T01:13:58;16.45;;;7.30;;
45694;SDS011;31408;45.468;9.124;2024-01-11T01:16:23;21.10;;;7.55;;
45694;SDS011;31408;45.468;9.124;2024-01-11T01:18:49;17.63;;;7.45;;
45694;SDS011;31408;45.468;9.124;2024-01-11T01:21:14;16.10;;;6.72;;
45694;SDS011;31408;45.468;9.124;2024-01-11T01:23:39;19.35;;;7.88;;
45694;SDS011;31408;45.468;9.124;2024-01-11T01:26:06;18.30;;;7.10;;
45694;SDS011;31408;45.468;9.124;2024-01-11T01:28:31;16.45;;;7.15;;
45694;SDS011;31408;45.468;9.124;2024-01-11T01:30:56;14.45;;;7.22;;
45694;SDS011;31408;45.468;9.124;2024-01-11T01:33:22;16.63;;;7.35;;
45694;SDS011;31408;45.468;9.124;2024-01-11T01:35:47;20.35;;;7.97;;
45694;SDS011;31408;45.468;9.124;2024-01-11T01:38:12;12.60;;;7.90;;
45694;SDS011;31408;45.468;9.124;2024-01-11T01:40:38;15.30;;;8.18;;
45694;SDS011;31408;45.468;9.124;2024-01-11T01:43:06;16.02;;;6.85;;
45694;SDS011;31408;45.468;9.124;2024-01-11T01:45:31;16.60;;;7.22;;
45694;SDS011;31408;45.468;9.124;2024-01-11T01:47:57;20.77;;;8.15;;
45694;SDS011;31408;45.468;9.124;2024-01-11T01:50:22;17.48;;;7.78;;
45694;SDS011;31408;45.468;9.124;2024-01-11T01:52:47;22.90;;;7.32;;
45694;SDS011;31408;45.468;9.124;2024-01-11T01:55:14;17.15;;;7.30;;
45694;SDS011;31408;45.468;9.124;2024-01-11T01:57:40;22.27;;;7.82;;
45694;SDS011;31408;45.468;9.124;2024-01-11T02:00:06;18.00;;;7.30;;
45694;SDS011;31408;45.468;9.124;2024-01-11T02:02:46;17.45;;;8.43;;
45694;SDS011;31408;45.468;9.124;2024-01-11T02:05:15;16.88;;;7.07;;
45694;SDS011;31408;45.468;9.124;2024-01-11T02:07:41;17.52;;;8.00;;
45694;SDS011;31408;45.468;9.124;2024-01-11T02:10:06;21.10;;;8.90;;
45694;SDS011;31408;45.468;9.124;2024-01-11T02:12:32;16.13;;;7.28;;
45694;SDS011;31408;45.468;9.124;2024-01-11T02:14:57;16.67;;;7.32;;
45694;SDS011;31408;45.468;9.124;2024-01-11T02:17:23;14.77;;;7.43;;
45694;SDS011;31408;45.468;9.124;2024-01-11T02:19:48;18.13;;;7.75;;
45694;SDS011;31408;45.468;9.124;2024-01-11T02:22:32;18.40;;;7.57;;
45694;SDS011;31408;45.468;9.124;2024-01-11T02:24:57;16.45;;;7.60;;
45694;SDS011;31408;45.468;9.124;2024-01-11T02:27:23;16.52;;;7.15;;
45694;SDS011;31408;45.468;9.124;2024-01-11T02:29:48;19.23;;;8.43;;
45694;SDS011;31408;45.468;9.124;2024-01-11T02:32:14;17.10;;;7.95;;
45694;SDS011;31408;45.468;9.124;2024-01-11T02:34:40;21.70;;;9.68;;
45694;SDS011;31408;45.468;9.124;2024-01-11T02:37:05;18.90;;;8.00;;
45694;SDS011;31408;45.468;9.124;2024-01-11T02:39:31;19.23;;;7.38;;
45694;SDS011;31408;45.468;9.124;2024-01-11T02:41:56;22.80;;;7.82;;
45694;SDS011;31408;45.468;9.124;2024-01-11T02:44:23;22.67;;;8.85;;
45694;SDS011;31408;45.468;9.124;2024-01-11T02:46:48;21.15;;;8.40;;
45694;SDS011;31408;45.468;9.124;2024-01-11T02:49:13;17.05;;;7.25;;
45694;SDS011;31408;45.468;9.124;2024-01-11T02:51:39;13.65;;;5.80;;
45694;SDS011;31408;45.468;9.124;2024-01-11T02:54:04;15.93;;;6.20;;
45694;SDS011;31408;45.468;9.124;2024-01-11T02:56:30;16.80;;;7.05;;
45694;SDS011;31408;45.468;9.124;2024-01-11T02:58:55;17.08;;;7.60;;
45694;SDS011;31408;45.468;9.124;2024-01-11T03:01:20;16.73;;;7.55;;
45694;SDS011;31408;45.468;9.124;2024-01-11T03:03:46;21.42;;;7.30;;
45694;SDS011;31408;45.468;9.124;2024-01-11T03:06:11;16.77;;;6.60;;
45694;SDS011;31408;45.468;9.124;2024-01-11T03:08:36;20.85;;;7.18;;
45694;SDS011;31408;45.468;9.124;2024-01-11T03:11:02;13.68;;;5.90;;
45694;SDS011;31408;45.468;9.124;2024-01-11T03:13:27;17.02;;;7.20;;
45694;SDS011;31408;45.468;9.124;2024-01-11T03:15:52;15.35;;;7.25;;
45694;SDS011;31408;45.468;9.124;2024-01-11T03:18:18;20.70;;;7.57;;
45694;SDS011;31408;45.468;9.124;2024-01-11T03:20:43;18.67;;;8.30;;
45694;SDS011;31408;45.468;9.124;2024-01-11T03:23:09;19.25;;;7.30;;
45694;SDS011;31408;45.468;9.124;2024-01-11T03:25:34;22.13;;;8.20;;
45694;SDS011;31408;45.468;9.124;2024-01-11T03:27:59;13.52;;;7.05;;
45694;SDS011;31408;45.468;9.124;2024-01-11T03:30:25;12.57;;;6.13;;
45694;SDS011;31408;45.468;9.124;2024-01-11T03:32:50;16.88;;;6.53;;
45694;SDS011;31408;45.468;9.124;2024-01-11T03:35:17;14.18;;;6.78;;
45694;SDS011;31408;45.468;9.124;2024-01-11T03:37:43;19.33;;;8.13;;
45694;SDS011;31408;45.468;9.124;2024-01-11T03:40:08;18.70;;;8.43;;
45694;SDS011;31408;45.468;9.124;2024-01-11T03:42:34;16.40;;;7.05;;
45694;SDS011;31408;45.468;9.124;2024-01-11T03:45:00;20.02;;;7.38;;
45694;SDS011;31408;45.468;9.124;2024-01-11T03:47:25;18.05;;;7.45;;
45694;SDS011;31408;45.468;9.124;2024-01-11T03:49:50;19.33;;;8.57;;
45694;SDS011;31408;45.468;9.124;2024-01-11T03:52:16;15.15;;;7.15;;
45694;SDS011;31408;45.468;9.124;2024-01-11T03:54:41;19.08;;;9.02;;
45694;SDS011;31408;45.468;9.124;2024-01-11T03:57:06;21.85;;;8.75;;
45694;SDS011;31408;45.468;9.124;2024-01-11T03:59:32;19.08;;;8.45;;
45694;SDS011;31408;45.468;9.124;2024-01-11T04:01:57;20.08;;;7.90;;
45694;SDS011;31408;45.468;9.124;2024-01-11T04:04:22;16.55;;;7.80;;
45694;SDS011;31408;45.468;9.124;2024-01-11T04:06:48;14.85;;;7.60;;
45694;SDS011;31408;45.468;9.124;2024-01-11T04:09:13;23.30;;;9.45;;
45694;SDS011;31408;45.468;9.124;2024-01-11T04:11:39;22.88;;;8.63;;
45694;SDS011;31408;45.468;9.124;2024-01-11T04:14:04;15.55;;;7.15;;
45694;SDS011;31408;45.468;9.124;2024-01-11T04:16:29;24.23;;;7.85;;
45694;SDS011;31408;45.468;9.124;2024-01-11T04:18:55;18.60;;;8.70;;
45694;SDS011;31408;45.468;9.124;2024-01-11T04:21:21;14.48;;;7.53;;
45694;SDS011;31408;45.468;9.124;2024-01-11T04:23:46;17.10;;;7.63;;
45694;SDS011;31408;45.468;9.124;2024-01-11T04:26:12;19.15;;;7.55;;
45694;SDS011;31408;45.468;9.124;2024-01-11T04:28:37;18.42;;;7.47;;
45694;SDS011;31408;45.468;9.124;2024-01-11T04:31:02;16.85;;;7.68;;
45694;SDS011;31408;45.468;9.124;2024-01-11T04:33:28;21.90;;;8.55;;
45694;SDS011;31408;45.468;9.124;2024-01-11T04:35:53;23.45;;;9.32;;
45694;SDS011;31408;45.468;9.124;2024-01-11T04:38:18;21.30;;;10.00;;
45694;SDS011;31408;45.468;9.124;2024-01-11T04:40:44;20.65;;;8.30;;
45694;SDS011;31408;45.468;9.124;2024-01-11T04:43:09;19.73;;;7.85;;
45694;SDS011;31408;45.468;9.124;2024-01-11T04:45:35;18.73;;;8.30;;
45694;SDS011;31408;45.468;9.124;2024-01-11T04:48:00;15.43;;;8.02;;
45694;SDS011;31408;45.468;9.124;2024-01-11T04:50:26;20.63;;;8.07;;
45694;SDS011;31408;45.468;9.124;2024-01-11T04:52:51;17.55;;;8.32;;
45694;SDS011;31408;45.468;9.124;2024-01-11T04:55:17;18.58;;;8.50;;
45694;SDS011;31408;45.468;9.124;2024-01-11T04:57:42;21.02;;;8.75;;
45694;SDS011;31408;45.468;9.124;2024-01-11T05:00:07;22.98;;;8.80;;
45694;SDS011;31408;45.468;9.124;2024-01-11T05:02:33;20.90;;;8.13;;
45694;SDS011;31408;45.468;9.124;2024-01-11T05:04:58;20.15;;;8.98;;
45694;SDS011;31408;45.468;9.124;2024-01-11T05:07:23;20.75;;;7.78;;
45694;SDS011;31408;45.468;9.124;2024-01-11T05:09:49;22.55;;;8.27;;
45694;SDS011;31408;45.468;9.124;2024-01-11T05:12:14;18.10;;;8.45;;
45694;SDS011;31408;45.468;9.124;2024-01-11T05:14:39;17.15;;;7.57;;
45694;SDS011;31408;45.468;9.124;2024-01-11T05:17:05;22.13;;;8.77;;
45694;SDS011;31408;45.468;9.124;2024-01-11T05:19:30;16.10;;;9.10;;
45694;SDS011;31408;45.468;9.124;2024-01-11T05:21:56;24.35;;;8.75;;
45694;SDS011;31408;45.468;9.124;2024-01-11T05:24:21;16.35;;;7.80;;
45694;SDS011;31408;45.468;9.124;2024-01-11T05:26:47;21.70;;;10.02;;
45694;SDS011;31408;45.468;9.124;2024-01-11T05:29:12;19.73;;;8.05;;
45694;SDS011;31408;45.468;9.124;2024-01-11T05:31:37;24.67;;;9.07;;
45694;SDS011;31408;45.468;9.124;2024-01-11T05:34:03;20.10;;;7.80;;
45694;SDS011;31408;45.468;9.124;2024-01-11T05:36:28;25.60;;;9.30;;
45694;SDS011;31408;45.468;9.124;2024-01-11T05:38:53;21.00;;;10.55;;
45694;SDS011;31408;45.468;9.124;2024-01-11T05:41:19;16.70;;;7.40;;
45694;SDS011;31408;45.468;9.124;2024-01-11T05:43:44;18.02;;;8.05;;
45694;SDS011;31408;45.468;9.124;2024-01-11T05:46:10;18.80;;;8.23;;
45694;SDS011;31408;45.468;9.124;2024-01-11T05:48:35;22.45;;;9.43;;
45694;SDS011;31408;45.468;9.124;2024-01-11T05:51:01;17.50;;;8.60;;
45694;SDS011;31408;45.468;9.124;2024-01-11T05:53:26;28.08;;;11.82;;
45694;SDS011;31408;45.468;9.124;2024-01-11T05:55:52;21.75;;;10.70;;
45694;SDS011;31408;45.468;9.124;2024-01-11T05:58:18;18.58;;;8.57;;
45694;SDS011;31408;45.468;9.124;2024-01-11T06:00:43;17.33;;;9.27;;
45694;SDS011;31408;45.468;9.124;2024-01-11T06:03:11;23.45;;;9.45;;
45694;SDS011;31408;45.468;9.124;2024-01-11T06:05:36;19.15;;;9.13;;
45694;SDS011;31408;45.468;9.124;2024-01-11T06:08:02;20.77;;;8.73;;
45694;SDS011;31408;45.468;9.124;2024-01-11T06:10:27;20.33;;;8.93;;
45694;SDS011;31408;45.468;9.124;2024-01-11T06:12:52;27.05;;;10.02;;
45694;SDS011;31408;45.468;9.124;2024-01-11T06:15:18;25.63;;;10.00;;
45694;SDS011;31408;45.468;9.124;2024-01-11T06:17:44;20.77;;;10.65;;
45694;SDS011;31408;45.468;9.124;2024-01-11T06:20:10;18.25;;;8.07;;
45694;SDS011;31408;45.468;9.124;2024-01-11T06:22:35;24.48;;;9.02;;
45694;SDS011;31408;45.468;9.124;2024-01-11T06:25:00;23.02;;;9.05;;
45694;SDS011;31408;45.468;9.124;2024-01-11T06:27:26;20.70;;;9.05;;
45694;SDS011;31408;45.468;9.124;2024-01-11T06:29:51;18.30;;;9.68;;
45694;SDS011;31408;45.468;9.124;2024-01-11T06:32:17;22.90;;;9.30;;
45694;SDS011;31408;45.468;9.124;2024-01-11T06:34:42;22.55;;;10.48;;
45694;SDS011;31408;45.468;9.124;2024-01-11T06:37:10;30.85;;;9.75;;
45694;SDS011;31408;45.468;9.124;2024-01-11T06:39:36;23.55;;;9.43;;
45694;SDS011;31408;45.468;9.124;2024-01-11T06:42:01;23.55;;;9.98;;
45694;SDS011;31408;45.468;9.124;2024-01-11T06:44:26;22.13;;;10.30;;
45694;SDS011;31408;45.468;9.124;2024-01-11T06:46:52;16.20;;;8.05;;
45694;SDS011;31408;45.468;9.124;2024-01-11T06:49:17;18.15;;;8.48;;
45694;SDS011;31408;45.468;9.124;2024-01-11T06:51:43;22.77;;;9.93;;
45694;SDS011;31408;45.468;9.124;2024-01-11T06:54:08;26.80;;;10.27;;
45694;SDS011;31408;45.468;9.124;2024-01-11T06:56:33;19.10;;;9.82;;
45694;SDS011;31408;45.468;9.124;2024-01-11T06:58:59;23.38;;;10.27;;
45694;SDS011;31408;45.468;9.124;2024-01-11T07:01:24;21.65;;;9.02;;
45694;SDS011;31408;45.468;9.124;2024-01-11T07:03:50;18.95;;;8.73;;
45694;SDS011;31408;45.468;9.124;2024-01-11T07:06:16;21.52;;;9.73;;
45694;SDS011;31408;45.468;9.124;2024-01-11T07:08:41;21.48;;;8.75;;
45694;SDS011;31408;45.468;9.124;2024-01-11T07:11:06;21.63;;;9.50;;
45694;SDS011;31408;45.468;9.124;2024-01-11T07:13:33;20.70;;;10.15;;
45694;SDS011;31408;45.468;9.124;2024-01-11T07:15:58;23.67;;;10.48;;
45694;SDS011;31408;45.468;9.124;2024-01-11T07:18:24;23.17;;;9.95;;
45694;SDS011;31408;45.468;9.124;2024-01-11T07:20:50;21.58;;;10.23;;
45694;SDS011;31408;45.468;9.124;2024-01-11T07:23:15;18.60;;;8.77;;
45694;SDS011;31408;45.468;9.124;2024-01-11T07:25:40;26.15;;;12.20;;
45694;SDS011;31408;45.468;9.124;2024-01-11T07:28:06;23.70;;;10.45;;
45694;SDS011;31408;45.468;9.124;2024-01-11T07:30:32;24.35;;;10.88;;
45694;SDS011;31408;45.468;9.124;2024-01-11T07:32:57;21.73;;;9.95;;
45694;SDS011;31408;45.468;9.124;2024-01-11T07:35:22;26.92;;;11.45;;
45694;SDS011;31408;45.468;9.124;2024-01-11T07:37:48;27.27;;;10.88;;
45694;SDS011;31408;45.468;9.124;2024-01-11T07:40:15;19.52;;;9.20;;
45694;SDS011;31408;45.468;9.124;2024-01-11T07:42:42;23.45;;;10.82;;
45694;SDS011;31408;45.468;9.124;2024-01-11T07:45:07;18.05;;;9.40;;
45694;SDS011;31408;45.468;9.124;2024-01-11T07:47:36;28.80;;;10.52;;
45694;SDS011;31408;45.468;9.124;2024-01-11T07:50:07;22.88;;;10.35;;
45694;SDS011;31408;45.468;9.124;2024-01-11T07:52:34;28.30;;;11.80;;
45694;SDS011;31408;45.468;9.124;2024-01-11T07:55:03;19.60;;;9.25;;
45694;SDS011;31408;45.468;9.124;2024-01-11T07:57:32;24.13;;;10.43;;
45694;SDS011;31408;45.468;9.124;2024-01-11T07:59:58;22.90;;;9.50;;
45694;SDS011;31408;45.468;9.124;2024-01-11T08:02:24;20.48;;;9.05;;
45694;SDS011;31408;45.468;9.124;2024-01-11T08:04:49;26.25;;;12.30;;
45694;SDS011;31408;45.468;9.124;2024-01-11T08:07:15;21.80;;;10.40;;
45694;SDS011;31408;45.468;9.124;2024-01-11T08:09:40;23.25;;;11.48;;
45694;SDS011;31408;45.468;9.124;2024-01-11T08:12:14;25.33;;;10.68;;
45694;SDS011;31408;45.468;9.124;2024-01-11T08:14:39;26.55;;;11.32;;
45694;SDS011;31408;45.468;9.124;2024-01-11T08:17:04;18.42;;;9.57;;
45694;SDS011;31408;45.468;9.124;2024-01-11T08:19:33;16.02;;;8.50;;
45694;SDS011;31408;45.468;9.124;2024-01-11T08:21:59;24.23;;;9.25;;
45694;SDS011;31408;45.468;9.124;2024-01-11T08:24:24;22.17;;;9.25;;
45694;SDS011;31408;45.468;9.124;2024-01-11T08:26:50;25.63;;;9.85;;
45694;SDS011;31408;45.468;9.124;2024-01-11T08:29:15;26.77;;;13.63;;
45694;SDS011;31408;45.468;9.124;2024-01-11T08:31:41;19.63;;;9.13;;
45694;SDS011;31408;45.468;9.124;2024-01-11T08:34:08;23.02;;;9.95;;
45694;SDS011;31408;45.468;9.124;2024-01-11T08:36:35;18.60;;;9.70;;
45694;SDS011;31408;45.468;9.124;2024-01-11T08:39:04;26.90;;;12.48;;
45694;SDS011;31408;45.468;9.124;2024-01-11T08:41:36;23.85;;;9.93;;
45694;SDS011;31408;45.468;9.124;2024-01-11T08:44:03;21.15;;;9.15;;
45694;SDS011;31408;45.468;9.124;2024-01-11T08:46:30;25.52;;;10.23;;
45694;SDS011;31408;45.468;9.124;2024-01-11T08:48:56;26.77;;;9.63;;
45694;SDS011;31408;45.468;9.124;2024-01-11T08:51:22;24.27;;;10.35;;
45694;SDS011;31408;45.468;9.124;2024-01-11T08:53:47;29.58;;;11.70;;
45694;SDS011;31408;45.468;9.124;2024-01-11T08:56:12;24.58;;;11.68;;
45694;SDS011;31408;45.468;9.124;2024-01-11T08:58:42;21.90;;;10.05;;
45694;SDS011;31408;45.468;9.124;2024-01-11T09:01:07;24.85;;;12.30;;
45694;SDS011;31408;45.468;9.124;2024-01-11T09:03:36;26.92;;;11.55;;
45694;SDS011;31408;45.468;9.124;2024-01-11T09:06:02;25.75;;;9.50;;
45694;SDS011;31408;45.468;9.124;2024-01-11T09:08:27;26.17;;;11.82;;
45694;SDS011;31408;45.468;9.124;2024-01-11T09:10:53;22.17;;;10.00;;
45694;SDS011;31408;45.468;9.124;2024-01-11T09:13:18;24.77;;;11.63;;
45694;SDS011;31408;45.468;9.124;2024-01-11T09:15:44;23.88;;;11.90;;
45694;SDS011;31408;45.468;9.124;2024-01-11T09:18:09;23.73;;;12.88;;
45694;SDS011;31408;45.468;9.124;2024-01-11T09:20:40;23.50;;;11.85;;
45694;SDS011;31408;45.468;9.124;2024-01-11T09:23:05;23.10;;;10.63;;
45694;SDS011;31408;45.468;9.124;2024-01-11T09:25:30;26.73;;;12.00;;
45694;SDS011;31408;45.468;9.124;2024-01-11T09:27:56;29.10;;;12.98;;
45694;SDS011;31408;45.468;9.124;2024-01-11T09:30:21;23.88;;;10.98;;
45694;SDS011;31408;45.468;9.124;2024-01-11T09:32:46;24.52;;;11.60;;
45694;SDS011;31408;45.468;9.124;2024-01-11T09:35:12;28.73;;;11.73;;
45694;SDS011;31408;45.468;9.124;2024-01-11T09:37:38;23.85;;;10.75;;
45694;SDS011;31408;45.468;9.124;2024-01-11T09:40:03;27.15;;;11.43;;
45694;SDS011;31408;45.468;9.124;2024-01-11T09:42:33;23.73;;;10.23;;
45694;SDS011;31408;45.468;9.124;2024-01-11T09:44:58;24.75;;;10.60;;
45694;SDS011;31408;45.468;9.124;2024-01-11T09:47:25;21.92;;;9.75;;
45694;SDS011;31408;45.468;9.124;2024-01-11T09:49:50;23.08;;;11.00;;
45694;SDS011;31408;45.468;9.124;2024-01-11T09:52:16;20.63;;;10.07;;
45694;SDS011;31408;45.468;9.124;2024-01-11T09:54:45;22.73;;;10.63;;
45694;SDS011;31408;45.468;9.124;2024-01-11T09:57:10;24.92;;;10.18;;
45694;SDS011;31408;45.468;9.124;2024-01-11T09:59:36;21.58;;;9.13;;
45694;SDS011;31408;45.468;9.124;2024-01-11T10:02:02;27.02;;;9.48;;
45694;SDS011;31408;45.468;9.124;2024-01-11T10:04:27;21.77;;;10.00;;
45694;SDS011;31408;45.468;9.124;2024-01-11T10:06:53;25.02;;;11.38;;
45694;SDS011;31408;45.468;9.124;2024-01-11T10:09:19;23.08;;;10.20;;
45694;SDS011;31408;45.468;9.124;2024-01-11T10:11:45;25.98;;;10.05;;
45694;SDS011;31408;45.468;9.124;2024-01-11T10:14:12;22.48;;;10.45;;
45694;SDS011;31408;45.468;9.124;2024-01-11T10:16:37;22.55;;;9.38;;
45694;SDS011;31408;45.468;9.124;2024-01-11T10:19:02;22.88;;;10.30;;
45694;SDS011;31408;45.468;9.124;2024-01-11T10:21:28;25.73;;;10.70;;
45694;SDS011;31408;45.468;9.124;2024-01-11T10:23:55;22.42;;;9.32;;
45694;SDS011;31408;45.468;9.124;2024-01-11T10:26:22;21.70;;;11.02;;
45694;SDS011;31408;45.468;9.124;2024-01-11T10:28:48;23.70;;;11.48;;
45694;SDS011;31408;45.468;9.124;2024-01-11T10:31:13;20.98;;;10.80;;
45694;SDS011;31408;45.468;9.124;2024-01-11T10:33:42;24.45;;;10.73;;
45694;SDS011;31408;45.468;9.124;2024-01-11T10:36:07;27.70;;;10.52;;
45694;SDS011;31408;45.468;9.124;2024-01-11T10:38:35;20.90;;;9.20;;
45694;SDS011;31408;45.468;9.124;2024-01-11T10:41:06;25.65;;;11.55;;
45694;SDS011;31408;45.468;9.124;2024-01-11T10:43:32;23.73;;;11.07;;
45694;SDS011;31408;45.468;9.124;2024-01-11T10:46:00;20.52;;;9.35;;
45694;SDS011;31408;45.468;9.124;2024-01-11T10:48:30;22.75;;;9.98;;
45694;SDS011;31408;45.468;9.124;2024-01-11T10:50:57;24.67;;;10.52;;
45694;SDS011;31408;45.468;9.124;2024-01-11T10:55:49;23.13;;;9.82;;
45694;SDS011;31408;45.468;9.124;2024-01-11T10:58:15;20.48;;;10.05;;
45694;SDS011;31408;45.468;9.124;2024-01-11T11:00:40;28.90;;;11.05;;
45694;SDS011;31408;45.468;9.124;2024-01-11T11:03:06;26.67;;;10.40;;
45694;SDS011;31408;45.468;9.124;2024-01-11T11:05:32;25.52;;;11.60;;
45694;SDS011;31408;45.468;9.124;2024-01-11T11:08:00;21.20;;;10.60;;
45694;SDS011;31408;45.468;9.124;2024-01-11T11:10:27;22.50;;;11.20;;
45694;SDS011;31408;45.468;9.124;2024-01-11T11:12:52;26.80;;;13.07;;
45694;SDS011;31408;45.468;9.124;2024-01-11T11:15:24;24.20;;;10.80;;
45694;SDS011;31408;45.468;9.124;2024-01-11T11:17:51;23.33;;;10.25;;
45694;SDS011;31408;45.468;9.124;2024-01-11T11:20:23;25.35;;;12.13;;
45694;SDS011;31408;45.468;9.124;2024-01-11T11:23:02;23.30;;;11.52;;
45694;SDS011;31408;45.468;9.124;2024-01-11T11:25:29;24.77;;;10.63;;
45694;SDS011;31408;45.468;9.124;2024-01-11T11:27:55;20.40;;;10.32;;
45694;SDS011;31408;45.468;9.124;2024-01-11T11:30:20;26.88;;;12.43;;
45694;SDS011;31408;45.468;9.124;2024-01-11T11:32:46;26.23;;;11.15;;
45694;SDS011;31408;45.468;9.124;2024-01-11T11:35:11;22.00;;;10.85;;
45694;SDS011;31408;45.468;9.124;2024-01-11T11:37:37;22.95;;;11.23;;
45694;SDS011;31408;45.468;9.124;2024-01-11T11:40:03;22.83;;;10.45;;
45694;SDS011;31408;45.468;9.124;2024-01-11T11:42:35;27.17;;;11.82;;
45694;SDS011;31408;45.468;9.124;2024-01-11T11:45:01;26.08;;;11.45;;
45694;SDS011;31408;45.468;9.124;2024-01-11T11:47:33;26.15;;;12.13;;
45694;SDS011;31408;45.468;9.124;2024-01-11T11:50:08;25.27;;;11.48;;
45694;SDS011;31408;45.468;9.124;2024-01-11T11:52:34;23.35;;;11.38;;
45694;SDS011;31408;45.468;9.124;2024-01-11T11:55:01;24.15;;;10.95;;
45694;SDS011;31408;45.468;9.124;2024-01-11T11:57:27;23.58;;;11.68;;
45694;SDS011;31408;45.468;9.124;2024-01-11T11:59:54;26.85;;;11.32;;
45694;SDS011;31408;45.468;9.124;2024-01-11T12:02:20;27.50;;;11.95;;
45694;SDS011;31408;45.468;9.124;2024-01-11T12:04:46;25.40;;;11.88;;
45694;SDS011;31408;45.468;9.124;2024-01-11T12:07:12;23.08;;;11.20;;
45694;SDS011;31408;45.468;9.124;2024-01-11T12:09:37;23.88;;;11.45;;
45694;SDS011;31408;45.468;9.124;2024-01-11T12:12:03;23.27;;;10.32;;
45694;SDS011;31408;45.468;9.124;2024-01-11T12:14:29;24.23;;;11.35;;
45694;SDS011;31408;45.468;9.124;2024-01-11T12:16:57;25.38;;;12.07;;
45694;SDS011;31408;45.468;9.124;2024-01-11T12:19:23;25.00;;;11.80;;
45694;SDS011;31408;45.468;9.124;2024-01-11T12:21:49;27.15;;;11.82;;
45694;SDS011;31408;45.468;9.124;2024-01-11T12:24:15;24.70;;;12.30;;
45694;SDS011;31408;45.468;9.124;2024-01-11T12:26:40;24.60;;;10.68;;
45694;SDS011;31408;45.468;9.124;2024-01-11T12:29:06;24.90;;;11.88;;
45694;SDS011;31408;45.468;9.124;2024-01-11T12:31:31;26.23;;;12.25;;
45694;SDS011;31408;45.468;9.124;2024-01-11T12:33:57;26.55;;;11.40;;
45694;SDS011;31408;45.468;9.124;2024-01-11T12:36:23;28.73;;;11.85;;
45694;SDS011;31408;45.468;9.124;2024-01-11T12:38:48;22.05;;;11.40;;
45694;SDS011;31408;45.468;9.124;2024-01-11T12:41:19;26.70;;;11.55;;
45694;SDS011;31408;45.468;9.124;2024-01-11T12:43:45;24.13;;;11.35;;
45694;SDS011;31408;45.468;9.124;2024-01-11T12:46:10;29.50;;;11.68;;
45694;SDS011;31408;45.468;9.124;2024-01-11T12:48:36;25.55;;;12.07;;
45694;SDS011;31408;45.468;9.124;2024-01-11T12:51:01;27.45;;;11.20;;
45694;SDS011;31408;45.468;9.124;2024-01-11T12:53:27;24.00;;;10.98;;
45694;SDS011;31408;45.468;9.124;2024-01-11T12:56:05;24.70;;;11.40;;
45694;SDS011;31408;45.468;9.124;2024-01-11T12:58:39;27.60;;;11.48;;
45694;SDS011;31408;45.468;9.124;2024-01-11T13:01:04;23.20;;;11.80;;
45694;SDS011;31408;45.468;9.124;2024-01-11T13:03:32;22.17;;;10.93;;
45694;SDS011;31408;45.468;9.124;2024-01-11T13:05:57;21.15;;;9.77;;
45694;SDS011;31408;45.468;9.124;2024-01-11T13:08:24;25.63;;;11.10;;
45694;SDS011;31408;45.468;9.124;2024-01-11T13:10:49;28.20;;;11.00;;
45694;SDS011;31408;45.468;9.124;2024-01-11T13:13:15;24.80;;;10.85;;
45694;SDS011;31408;45.468;9.124;2024-01-11T13:15:40;25.88;;;10.85;;
45694;SDS011;31408;45.468;9.124;2024-01-11T13:18:06;18.83;;;8.73;;
45694;SDS011;31408;45.468;9.124;2024-01-11T13:20:31;24.95;;;11.50;;
45694;SDS011;31408;45.468;9.124;2024-01-11T13:25:39;23.83;;;10.60;;
45694;SDS011;31408;45.468;9.124;2024-01-11T13:28:04;25.05;;;11.00;;
45694;SDS011;31408;45.468;9.124;2024-01-11T13:30:31;21.17;;;10.00;;
45694;SDS011;31408;45.468;9.124;2024-01-11T13:32:57;25.52;;;10.73;;
45694;SDS011;31408;45.468;9.124;2024-01-11T13:35:22;25.80;;;10.63;;
45694;SDS011;31408;45.468;9.124;2024-01-11T13:37:47;23.60;;;10.70;;
45694;SDS011;31408;45.468;9.124;2024-01-11T13:40:13;25.40;;;9.82;;
45694;SDS011;31408;45.468;9.124;2024-01-11T13:42:39;22.50;;;10.43;;
45694;SDS011;31408;45.468;9.124;2024-01-11T13:45:04;23.40;;;11.32;;
45694;SDS011;31408;45.468;9.124;2024-01-11T13:47:32;21.20;;;10.68;;
45694;SDS011;31408;45.468;9.124;2024-01-11T13:49:57;25.13;;;10.45;;
45694;SDS011;31408;45.468;9.124;2024-01-11T13:52:23;18.90;;;9.77;;
45694;SDS011;31408;45.468;9.124;2024-01-11T13:54:48;21.42;;;9.88;;
45694;SDS011;31408;45.468;9.124;2024-01-11T13:57:14;23.00;;;9.68;;
45694;SDS011;31408;45.468;9.124;2024-01-11T13:59:39;20.55;;;9.82;;
45694;SDS011;31408;45.468;9.124;2024-01-11T14:02:04;21.77;;;9.57;;
45694;SDS011;31408;45.468;9.124;2024-01-11T14:04:30;21.67;;;10.80;;
45694;SDS011;31408;45.468;9.124;2024-01-11T14:06:55;20.67;;;9.13;;
45694;SDS011;31408;45.468;9.124;2024-01-11T14:09:20;27.27;;;11.18;;
45694;SDS011;31408;45.468;9.124;2024-01-11T14:11:47;22.23;;;10.20;;
45694;SDS011;31408;45.468;9.124;2024-01-11T14:14:13;21.65;;;9.90;;
45694;SDS011;31408;45.468;9.124;2024-01-11T14:16:39;19.80;;;9.52;;
45694;SDS011;31408;45.468;9.124;2024-01-11T14:19:04;23.00;;;10.88;;
45694;SDS011;31408;45.468;9.124;2024-01-11T14:21:29;24.75;;;10.43;;
45694;SDS011;31408;45.468;9.124;2024-01-11T14:23:55;23.27;;;10.75;;
45694;SDS011;31408;45.468;9.124;2024-01-11T14:26:20;17.98;;;8.23;;